createdAt,value
2023-04-03T00:00:25.962Z,23.44
2023-04-03T00:01:25.952Z,23.42
2023-04-03T00:02:26.055Z,23.44
2023-04-03T00:03:25.943Z,23.43
2023-04-03T00:04:25.961Z,23.43
2023-04-03T00:05:25.953Z,23.43
2023-04-03T00:06:25.961Z,23.43
2023-04-03T00:07:26.012Z,23.42
2023-04-03T00:08:25.986Z,23.43
2023-04-03T00:09:25.993Z,23.43
2023-04-03T00:10:25.984Z,23.42
2023-04-03T00:11:26.005Z,23.43
2023-04-03T00:12:26.015Z,23.42
2023-04-03T00:13:26.032Z,23.42
2023-04-03T00:14:26.041Z,23.42
2023-04-03T00:15:26.038Z,23.42
2023-04-03T00:16:26.084Z,23.42
2023-04-03T00:17:26.090Z,23.42
2023-04-03T00:18:26.070Z,23.41
2023-04-03T00:19:26.072Z,23.42
2023-04-03T00:20:26.112Z,23.42
2023-04-03T00:21:26.088Z,23.42
2023-04-03T00:22:26.111Z,23.41
2023-04-03T00:23:26.113Z,23.41
2023-04-03T00:24:26.137Z,23.42
2023-04-03T00:25:26.148Z,23.41
2023-04-03T00:26:26.140Z,23.41
2023-04-03T00:27:26.137Z,23.41
2023-04-03T00:28:26.148Z,23.41
2023-04-03T00:29:26.168Z,23.41
2023-04-03T00:30:26.177Z,23.40
2023-04-03T00:31:26.264Z,23.41
2023-04-03T00:32:26.226Z,23.41
2023-04-03T00:33:26.233Z,23.41
2023-04-03T00:34:26.238Z,23.41
2023-04-03T00:35:26.278Z,23.41
2023-04-03T00:36:26.328Z,23.41
2023-04-03T00:37:26.304Z,23.41
2023-04-03T00:38:26.311Z,23.41
2023-04-03T00:39:26.318Z,23.41
2023-04-03T00:40:26.342Z,23.41
2023-04-03T00:41:26.354Z,23.41
2023-04-03T00:42:26.365Z,23.41
2023-04-03T00:43:26.387Z,23.40
2023-04-03T00:44:26.399Z,23.40
2023-04-03T00:45:26.393Z,23.40
2023-04-03T00:46:26.423Z,23.40
2023-04-03T00:47:26.458Z,23.40
2023-04-03T00:48:26.441Z,23.40
2023-04-03T00:49:26.425Z,23.39
2023-04-03T00:50:26.437Z,23.40
2023-04-03T00:51:26.459Z,23.40
2023-04-03T00:52:26.472Z,23.39
2023-04-03T00:53:26.475Z,23.40
2023-04-03T00:54:26.485Z,23.39
2023-04-03T00:55:26.485Z,23.39
2023-04-03T00:56:26.495Z,23.40
2023-04-03T00:57:26.564Z,23.39
2023-04-03T00:58:26.512Z,23.39
2023-04-03T00:59:26.584Z,23.39
2023-04-03T01:00:26.547Z,23.39
2023-04-03T01:01:26.595Z,23.38
2023-04-03T01:02:26.603Z,23.39
2023-04-03T01:03:26.605Z,23.39
2023-04-03T01:04:26.645Z,23.38
2023-04-03T01:05:26.627Z,23.38
2023-04-03T01:06:26.652Z,23.39
2023-04-03T01:07:26.647Z,23.38
2023-04-03T01:08:26.679Z,23.38
2023-04-03T01:09:26.692Z,23.38
2023-04-03T01:10:26.688Z,23.38
2023-04-03T01:11:26.704Z,23.38
2023-04-03T01:12:26.736Z,23.38
2023-04-03T01:13:26.760Z,23.38
2023-04-03T01:14:26.746Z,23.37
2023-04-03T01:15:26.766Z,23.37
2023-04-03T01:16:26.838Z,23.37
2023-04-03T01:17:26.811Z,23.38
2023-04-03T01:18:26.816Z,23.37
2023-04-03T01:19:26.833Z,23.37
2023-04-03T01:20:26.826Z,23.37
2023-04-03T01:21:26.854Z,23.36
2023-04-03T01:22:26.880Z,23.37
2023-04-03T01:23:26.876Z,23.37
2023-04-03T01:24:26.892Z,23.37
2023-04-03T01:25:26.910Z,23.36
2023-04-03T01:26:26.917Z,23.37
2023-04-03T01:27:26.916Z,23.36
2023-04-03T01:28:26.935Z,23.36
2023-04-03T01:29:26.958Z,23.36
2023-04-03T01:30:26.965Z,23.35
2023-04-03T01:31:27.010Z,23.36
2023-04-03T01:32:27.021Z,23.35
2023-04-03T01:33:27.035Z,23.35
2023-04-03T01:34:27.026Z,23.35
2023-04-03T01:35:27.057Z,23.35
2023-04-03T01:36:27.083Z,23.34
2023-04-03T01:37:27.091Z,23.34
2023-04-03T01:38:27.082Z,23.35
2023-04-03T01:39:27.096Z,23.34
2023-04-03T01:40:27.100Z,23.34
2023-04-03T01:41:27.142Z,23.34
2023-04-03T01:42:27.149Z,23.34
2023-04-03T01:43:27.180Z,23.34
2023-04-03T01:44:27.167Z,23.34
2023-04-03T01:45:27.224Z,23.34
2023-04-03T01:46:27.213Z,23.33
2023-04-03T01:47:27.221Z,23.34
2023-04-03T01:48:27.210Z,23.34
2023-04-03T01:49:27.227Z,23.34
2023-04-03T01:50:27.221Z,23.33
2023-04-03T01:51:27.231Z,23.33
2023-04-03T01:52:27.264Z,23.34
2023-04-03T01:53:27.297Z,23.33
2023-04-03T01:54:27.311Z,23.33
2023-04-03T01:55:27.303Z,23.33
2023-04-03T01:56:27.327Z,23.33
2023-04-03T01:57:27.388Z,23.33
2023-04-03T01:58:27.353Z,23.32
2023-04-03T01:59:27.378Z,23.32
2023-04-03T02:00:27.378Z,23.33
2023-04-03T02:01:27.431Z,23.33
2023-04-03T02:02:27.407Z,23.33
2023-04-03T02:03:27.422Z,23.31
2023-04-03T02:04:27.551Z,23.32
2023-04-03T02:05:27.456Z,23.32
2023-04-03T02:06:27.488Z,23.32
2023-04-03T02:07:27.509Z,23.32
2023-04-03T02:08:27.508Z,23.32
2023-04-03T02:09:27.536Z,23.31
2023-04-03T02:10:27.566Z,23.31
2023-04-03T02:11:27.544Z,23.31
2023-04-03T02:12:27.598Z,23.31
2023-04-03T02:13:27.589Z,23.31
2023-04-03T02:14:27.607Z,23.31
2023-04-03T02:15:27.608Z,23.31
2023-04-03T02:16:27.709Z,23.30
2023-04-03T02:17:27.660Z,23.30
2023-04-03T02:18:27.664Z,23.30
2023-04-03T02:19:27.702Z,23.30
2023-04-03T02:20:27.739Z,23.30
2023-04-03T02:21:27.722Z,23.30
2023-04-03T02:22:27.752Z,23.30
2023-04-03T02:23:27.763Z,23.30
2023-04-03T02:24:27.774Z,23.30
2023-04-03T02:25:27.786Z,23.30
2023-04-03T02:26:27.817Z,23.30
2023-04-03T02:27:27.839Z,23.29
2023-04-03T02:28:27.848Z,23.29
2023-04-03T02:29:27.866Z,23.30
2023-04-03T02:30:27.913Z,23.30
2023-04-03T02:31:27.928Z,23.30
2023-04-03T02:32:27.997Z,23.30
2023-04-03T02:33:27.924Z,23.29
2023-04-03T02:34:27.927Z,23.29
2023-04-03T02:35:27.997Z,23.30
2023-04-03T02:36:27.981Z,23.28
2023-04-03T02:37:28.007Z,23.29
2023-04-03T02:38:27.989Z,23.28
2023-04-03T02:39:28.008Z,23.29
2023-04-03T02:40:28.021Z,23.29
2023-04-03T02:41:28.051Z,23.28
2023-04-03T02:42:28.074Z,23.28
2023-04-03T02:43:28.078Z,23.28
2023-04-03T02:44:28.108Z,23.28
2023-04-03T02:45:28.110Z,23.29
2023-04-03T02:46:28.150Z,23.28
2023-04-03T02:47:28.169Z,23.28
2023-04-03T02:48:28.160Z,23.28
2023-04-03T02:49:28.177Z,23.28
2023-04-03T02:50:28.179Z,23.28
2023-04-03T02:51:28.186Z,23.28
2023-04-03T02:52:28.207Z,23.27
2023-04-03T02:53:28.216Z,23.28
2023-04-03T02:54:28.239Z,23.28
2023-04-03T02:55:28.301Z,23.28
2023-04-03T02:56:28.302Z,23.27
2023-04-03T02:57:28.335Z,23.27
2023-04-03T02:58:28.312Z,23.27
2023-04-03T02:59:28.342Z,23.27
2023-04-03T03:00:28.378Z,23.27
2023-04-03T03:01:28.395Z,23.27
2023-04-03T03:02:28.473Z,23.27
2023-04-03T03:03:28.453Z,23.26
2023-04-03T03:04:28.456Z,23.27
2023-04-03T03:05:28.454Z,23.26
2023-04-03T03:06:28.476Z,23.26
2023-04-03T03:07:28.489Z,23.26
2023-04-03T03:08:28.506Z,23.26
2023-04-03T03:09:28.541Z,23.26
2023-04-03T03:10:28.553Z,23.25
2023-04-03T03:11:28.582Z,23.26
2023-04-03T03:12:28.589Z,23.26
2023-04-03T03:13:28.635Z,23.26
2023-04-03T03:14:28.622Z,23.26
2023-04-03T03:15:28.671Z,23.26
2023-04-03T03:16:28.832Z,23.26
2023-04-03T03:17:28.727Z,23.25
2023-04-03T03:18:28.701Z,23.25
2023-04-03T03:19:28.722Z,23.25
2023-04-03T03:20:28.740Z,23.25
2023-04-03T03:21:28.769Z,23.25
2023-04-03T03:22:29.729Z,23.25
2023-04-03T03:23:28.809Z,23.24
2023-04-03T03:24:28.825Z,23.24
2023-04-03T03:25:28.841Z,23.24
2023-04-03T03:26:28.853Z,23.25
2023-04-03T03:27:28.873Z,23.24
2023-04-03T03:28:28.890Z,23.24
2023-04-03T03:29:28.900Z,23.24
2023-04-03T03:30:28.915Z,23.24
2023-04-03T03:31:28.950Z,23.24
2023-04-03T03:32:28.969Z,23.24
2023-04-03T03:33:28.988Z,23.24
2023-04-03T03:34:28.984Z,23.23
2023-04-03T03:35:28.993Z,23.23
2023-04-03T03:36:28.999Z,23.24
2023-04-03T03:37:29.038Z,23.23
2023-04-03T03:38:29.040Z,23.23
2023-04-03T03:39:29.069Z,23.23
2023-04-03T03:40:29.080Z,23.22
2023-04-03T03:41:29.099Z,23.22
2023-04-03T03:42:29.136Z,23.22
2023-04-03T03:43:29.144Z,23.22
2023-04-03T03:44:29.183Z,23.22
2023-04-03T03:45:29.202Z,23.22
2023-04-03T03:46:29.228Z,23.21
2023-04-03T03:47:29.265Z,23.22
2023-04-03T03:48:29.226Z,23.21
2023-04-03T03:49:29.243Z,23.22
2023-04-03T03:50:29.327Z,23.22
2023-04-03T03:51:29.301Z,23.21
2023-04-03T03:52:29.301Z,23.21
2023-04-03T03:53:29.324Z,23.21
2023-04-03T03:54:29.353Z,23.21
2023-04-03T03:55:29.386Z,23.21
2023-04-03T03:56:29.404Z,23.21
2023-04-03T03:57:29.505Z,23.21
2023-04-03T03:58:29.424Z,23.20
2023-04-03T03:59:29.454Z,23.21
2023-04-03T04:00:29.478Z,23.20
2023-04-03T04:01:29.487Z,23.20
2023-04-03T04:02:29.564Z,23.20
2023-04-03T04:03:29.574Z,23.20
2023-04-03T04:04:29.547Z,23.20
2023-04-03T04:05:29.591Z,23.20
2023-04-03T04:06:29.595Z,23.20
2023-04-03T04:07:29.643Z,23.19
2023-04-03T04:08:29.666Z,23.19
2023-04-03T04:09:29.647Z,23.20
2023-04-03T04:10:29.665Z,23.19
2023-04-03T04:11:29.719Z,23.19
2023-04-03T04:12:29.727Z,23.18
2023-04-03T04:13:29.737Z,23.19
2023-04-03T04:14:29.754Z,23.19
2023-04-03T04:15:29.766Z,23.19
2023-04-03T04:16:29.811Z,23.18
2023-04-03T04:17:29.900Z,23.18
2023-04-03T04:18:29.841Z,23.18
2023-04-03T04:19:29.853Z,23.18
2023-04-03T04:20:29.873Z,23.18
2023-04-03T04:21:29.896Z,23.18
2023-04-03T04:22:29.911Z,23.19
2023-04-03T04:23:29.937Z,23.19
2023-04-03T04:24:29.965Z,23.19
2023-04-03T04:25:29.941Z,23.19
2023-04-03T04:26:29.980Z,23.19
2023-04-03T04:27:29.973Z,23.19
2023-04-03T04:28:29.998Z,23.20
2023-04-03T04:29:30.008Z,23.20
2023-04-03T04:30:30.027Z,23.20
2023-04-03T04:31:30.136Z,23.19
2023-04-03T04:32:30.085Z,23.20
2023-04-03T04:33:30.070Z,23.20
2023-04-03T04:34:30.182Z,23.20
2023-04-03T04:35:30.216Z,23.20
2023-04-03T04:36:30.171Z,23.21
2023-04-03T04:37:30.116Z,23.20
2023-04-03T04:38:30.119Z,23.20
2023-04-03T04:39:30.139Z,23.21
2023-04-03T04:40:30.167Z,23.21
2023-04-03T04:41:30.166Z,23.21
2023-04-03T04:42:30.216Z,23.21
2023-04-03T04:43:30.199Z,23.21
2023-04-03T04:44:30.222Z,23.21
2023-04-03T04:45:30.231Z,23.21
2023-04-03T04:46:30.288Z,23.20
2023-04-03T04:47:30.290Z,23.21
2023-04-03T04:48:32.584Z,23.21
2023-04-03T04:49:30.422Z,23.21
2023-04-03T04:50:30.460Z,23.21
2023-04-03T04:51:35.129Z,23.21
2023-04-03T04:52:31.467Z,23.21
2023-04-03T04:53:30.456Z,23.21
2023-04-03T04:54:30.482Z,23.21
2023-04-03T04:55:30.453Z,23.21
2023-04-03T04:56:30.454Z,23.21
2023-04-03T04:57:30.487Z,23.21
2023-04-03T04:58:30.433Z,23.21
2023-04-03T04:59:30.422Z,23.22
2023-04-03T05:00:30.464Z,23.21
2023-04-03T05:01:30.444Z,23.22
2023-04-03T05:02:30.445Z,23.22
2023-04-03T05:03:30.413Z,23.21
2023-04-03T05:04:30.452Z,23.21
2023-04-03T05:05:30.376Z,23.21
2023-04-03T05:06:30.384Z,23.21
2023-04-03T05:07:30.377Z,23.21
2023-04-03T05:08:30.355Z,23.21
2023-04-03T05:09:30.353Z,23.21
2023-04-03T05:10:30.348Z,23.21
2023-04-03T05:11:30.349Z,23.21
2023-04-03T05:12:30.349Z,23.21
2023-04-03T05:13:30.328Z,23.21
2023-04-03T05:14:30.311Z,23.22
2023-04-03T05:15:30.330Z,23.22
2023-04-03T05:16:30.414Z,23.22
2023-04-03T05:17:30.428Z,23.22
2023-04-03T05:18:30.425Z,23.22
2023-04-03T05:19:30.414Z,23.23
2023-04-03T05:20:30.440Z,23.22
2023-04-03T05:21:30.457Z,23.22
2023-04-03T05:22:30.479Z,23.22
2023-04-03T05:23:30.497Z,23.22
2023-04-03T05:24:30.533Z,23.22
2023-04-03T05:25:30.528Z,23.22
2023-04-03T05:26:30.580Z,23.22
2023-04-03T05:27:30.589Z,23.22
2023-04-03T05:28:30.616Z,23.23
2023-04-03T05:29:30.610Z,23.22
2023-04-03T05:30:30.631Z,23.22
2023-04-03T05:31:30.811Z,23.22
2023-04-03T05:32:30.708Z,23.23
2023-04-03T05:33:30.710Z,23.22
2023-04-03T05:34:30.719Z,23.22
2023-04-03T05:35:30.746Z,23.23
2023-04-03T05:36:30.762Z,23.22
2023-04-03T05:37:30.775Z,23.23
2023-04-03T05:38:30.783Z,23.22
2023-04-03T05:39:30.796Z,23.23
2023-04-03T05:40:30.812Z,23.23
2023-04-03T05:41:30.837Z,23.23
2023-04-03T05:42:30.896Z,23.23
2023-04-03T05:43:30.868Z,23.23
2023-04-03T05:44:30.892Z,23.23
2023-04-03T05:45:31.007Z,23.24
2023-04-03T05:46:30.947Z,23.23
2023-04-03T05:47:31.017Z,23.24
2023-04-03T05:48:30.987Z,23.23
2023-04-03T05:49:30.976Z,23.23
2023-04-03T05:50:31.027Z,23.23
2023-04-03T05:51:31.021Z,23.24
2023-04-03T05:52:31.042Z,23.24
2023-04-03T05:53:31.083Z,23.24
2023-04-03T05:54:31.067Z,23.24
2023-04-03T05:55:31.113Z,23.24
2023-04-03T05:56:31.129Z,23.24
2023-04-03T05:57:31.156Z,23.24
2023-04-03T05:58:31.153Z,23.24
2023-04-03T05:59:31.162Z,23.24
2023-04-03T06:00:31.197Z,23.24
2023-04-03T06:01:31.197Z,23.25
2023-04-03T06:02:31.260Z,23.25
2023-04-03T06:03:31.364Z,23.25
2023-04-03T06:04:31.334Z,23.25
2023-04-03T06:05:31.304Z,23.26
2023-04-03T06:06:31.283Z,23.25
2023-04-03T06:07:31.326Z,23.25
2023-04-03T06:08:31.345Z,23.26
2023-04-03T06:09:31.366Z,23.26
2023-04-03T06:10:31.395Z,23.26
2023-04-03T06:11:31.410Z,23.26
2023-04-03T06:12:31.410Z,23.27
2023-04-03T06:13:31.441Z,23.26
2023-04-03T06:14:31.430Z,23.27
2023-04-03T06:15:31.470Z,23.27
2023-04-03T06:16:31.508Z,23.27
2023-04-03T06:17:31.515Z,23.27
2023-04-03T06:18:31.497Z,23.27
2023-04-03T06:19:31.532Z,23.28
2023-04-03T06:20:31.535Z,23.27
2023-04-03T06:21:31.575Z,23.27
2023-04-03T06:22:31.578Z,23.28
2023-04-03T06:23:31.585Z,23.28
2023-04-03T06:24:31.614Z,23.28
2023-04-03T06:25:31.613Z,23.28
2023-04-03T06:26:31.654Z,23.29
2023-04-03T06:27:31.669Z,23.28
2023-04-03T06:28:31.665Z,23.28
2023-04-03T06:29:31.675Z,23.29
2023-04-03T06:30:31.728Z,23.30
2023-04-03T06:31:31.828Z,23.30
2023-04-03T06:32:31.736Z,23.29
2023-04-03T06:33:31.751Z,23.29
2023-04-03T06:34:31.796Z,23.29
2023-04-03T06:35:31.854Z,23.30
2023-04-03T06:36:31.812Z,23.31
2023-04-03T06:37:31.833Z,23.30
2023-04-03T06:38:31.825Z,23.31
2023-04-03T06:39:31.849Z,23.31
2023-04-03T06:40:31.872Z,23.31
2023-04-03T06:41:31.873Z,23.32
2023-04-03T06:42:31.898Z,23.31
2023-04-03T06:43:34.321Z,23.32
2023-04-03T06:44:32.108Z,23.32
2023-04-03T06:45:32.123Z,23.32
2023-04-03T06:46:32.220Z,23.32
2023-04-03T06:47:32.245Z,23.33
2023-04-03T06:48:32.166Z,23.34
2023-04-03T06:49:32.205Z,23.34
2023-04-03T06:50:32.204Z,23.34
2023-04-03T06:51:32.244Z,23.35
2023-04-03T06:52:32.261Z,23.35
2023-04-03T06:53:32.263Z,23.35
2023-04-03T06:54:32.470Z,23.36
2023-04-03T06:55:32.319Z,23.35
2023-04-03T06:56:32.383Z,23.35
2023-04-03T06:57:32.474Z,23.36
2023-04-03T06:58:32.351Z,23.36
2023-04-03T06:59:32.382Z,23.36
2023-04-03T07:00:32.380Z,23.36
2023-04-03T07:01:32.468Z,23.36
2023-04-03T07:02:32.459Z,23.37
2023-04-03T07:03:33.865Z,23.37
2023-04-03T07:04:32.517Z,23.37
2023-04-03T07:05:32.465Z,23.37
2023-04-03T07:06:32.486Z,23.36
2023-04-03T07:07:32.521Z,23.37
2023-04-03T07:08:32.519Z,23.38
2023-04-03T07:09:32.640Z,23.38
2023-04-03T07:10:32.542Z,23.37
2023-04-03T07:11:32.559Z,23.38
2023-04-03T07:12:32.584Z,23.38
2023-04-03T07:13:32.612Z,23.38
2023-04-03T07:14:32.634Z,23.39
2023-04-03T07:15:32.623Z,23.38
2023-04-03T07:16:32.817Z,23.38
2023-04-03T07:17:32.692Z,23.39
2023-04-03T07:18:32.693Z,23.39
2023-04-03T07:19:32.696Z,23.39
2023-04-03T07:20:32.721Z,23.40
2023-04-03T07:21:32.735Z,23.39
2023-04-03T07:22:32.733Z,23.39
2023-04-03T07:23:32.958Z,23.40
2023-04-03T07:24:32.770Z,23.40
2023-04-03T07:25:32.793Z,23.40
2023-04-03T07:26:32.812Z,23.40
2023-04-03T07:27:32.823Z,23.40
2023-04-03T07:28:32.844Z,23.41
2023-04-03T07:29:32.865Z,23.40
2023-04-03T07:30:32.897Z,23.41
2023-04-03T07:31:32.915Z,23.40
2023-04-03T07:32:32.957Z,23.42
2023-04-03T07:33:32.934Z,23.42
2023-04-03T07:34:32.948Z,23.42
2023-04-03T07:35:32.972Z,23.42
2023-04-03T07:36:32.969Z,23.41
2023-04-03T07:37:32.977Z,23.43
2023-04-03T07:38:33.029Z,23.43
2023-04-03T07:39:33.027Z,23.43
2023-04-03T07:40:33.036Z,23.43
2023-04-03T07:41:33.053Z,23.44
2023-04-03T07:42:33.076Z,23.44
2023-04-03T07:43:33.067Z,23.43
2023-04-03T07:44:33.076Z,23.44
2023-04-03T07:45:33.121Z,23.45
2023-04-03T07:46:33.125Z,23.45
2023-04-03T07:47:33.141Z,23.45
2023-04-03T07:48:33.118Z,23.45
2023-04-03T07:49:33.122Z,23.46
2023-04-03T07:50:33.156Z,23.46
2023-04-03T07:51:33.161Z,23.46
2023-04-03T07:52:33.168Z,23.47
2023-04-03T07:53:33.178Z,23.47
2023-04-03T07:54:33.170Z,23.47
2023-04-03T07:55:34.854Z,23.47
2023-04-03T07:56:33.196Z,23.47
2023-04-03T07:57:33.333Z,23.48
2023-04-03T07:58:33.248Z,23.49
2023-04-03T07:59:33.231Z,23.49
2023-04-03T08:00:33.239Z,23.50
2023-04-03T08:01:33.255Z,23.51
2023-04-03T08:02:33.351Z,23.52
2023-04-03T08:03:33.415Z,23.53
2023-04-03T08:04:33.369Z,23.52
2023-04-03T08:05:33.296Z,23.53
2023-04-03T08:06:45.794Z,23.54
2023-04-03T08:07:34.303Z,23.54
2023-04-03T08:08:33.293Z,23.55
2023-04-03T08:09:33.282Z,23.56
2023-04-03T08:10:33.264Z,23.56
2023-04-03T08:11:33.257Z,23.58
2023-04-03T08:12:33.254Z,23.58
2023-04-03T08:13:33.267Z,23.59
2023-04-03T08:14:33.233Z,23.59
2023-04-03T08:15:33.253Z,23.60
2023-04-03T08:16:33.289Z,23.60
2023-04-03T08:17:33.289Z,23.61
2023-04-03T08:18:33.214Z,23.62
2023-04-03T08:19:33.214Z,23.63
2023-04-03T08:20:33.208Z,23.63
2023-04-03T08:21:33.196Z,23.64
2023-04-03T08:22:33.225Z,23.64
2023-04-03T08:23:33.196Z,23.66
2023-04-03T08:24:33.167Z,23.66
2023-04-03T08:25:33.181Z,23.66
2023-04-03T08:26:33.167Z,23.68
2023-04-03T08:27:33.167Z,23.68
2023-04-03T08:28:33.149Z,23.68
2023-04-03T08:29:33.765Z,23.70
2023-04-03T08:30:33.149Z,23.70
2023-04-03T08:31:33.160Z,23.71
2023-04-03T08:32:33.195Z,23.72
2023-04-03T08:33:33.128Z,23.73
2023-04-03T08:34:33.100Z,23.74
2023-04-03T08:35:33.143Z,23.76
2023-04-03T08:36:33.116Z,23.76
2023-04-03T08:37:33.086Z,23.77
2023-04-03T08:38:33.078Z,23.78
2023-04-03T08:39:33.084Z,23.80
2023-04-03T08:40:33.076Z,23.81
2023-04-03T08:41:33.059Z,23.82
2023-04-03T08:42:33.067Z,23.83
2023-04-03T08:43:33.058Z,23.84
2023-04-03T08:44:33.030Z,23.85
2023-04-03T08:45:33.067Z,23.86
2023-04-03T08:46:33.102Z,23.86
2023-04-03T08:47:33.138Z,23.89
2023-04-03T08:48:33.228Z,23.89
2023-04-03T08:49:33.254Z,23.90
2023-04-03T08:50:33.271Z,23.91
2023-04-03T08:51:33.316Z,23.94
2023-04-03T08:52:33.370Z,23.97
2023-04-03T08:53:33.506Z,24.03
2023-04-03T08:54:34.741Z,24.05
2023-04-03T08:55:33.581Z,24.07
2023-04-03T08:56:33.636Z,24.08
2023-04-03T08:57:33.860Z,24.10
2023-04-03T08:58:33.754Z,24.12
2023-04-03T08:59:33.819Z,24.15
2023-04-03T09:00:33.863Z,24.15
2023-04-03T09:01:33.979Z,24.16
2023-04-03T09:02:34.055Z,24.17
2023-04-03T09:03:34.103Z,24.18
2023-04-03T09:04:34.159Z,24.19
2023-04-03T09:05:34.140Z,24.20
2023-04-03T09:06:34.162Z,24.21
2023-04-03T09:07:34.250Z,24.22
2023-04-03T09:08:34.276Z,24.23
2023-04-03T09:09:34.360Z,24.24
2023-04-03T09:10:34.375Z,24.25
2023-04-03T09:11:34.403Z,24.26
2023-04-03T09:12:34.462Z,24.27
2023-04-03T09:13:34.514Z,24.28
2023-04-03T09:14:34.517Z,24.29
2023-04-03T09:15:38.920Z,24.30
2023-04-03T09:16:35.577Z,24.31
2023-04-03T09:17:34.605Z,24.33
2023-04-03T09:18:34.552Z,24.34
2023-04-03T09:19:34.586Z,24.36
2023-04-03T09:20:34.615Z,24.39
2023-04-03T09:21:34.529Z,24.42
2023-04-03T09:22:36.672Z,24.42
2023-04-03T09:23:35.504Z,24.44
2023-04-03T09:24:34.507Z,24.48
2023-04-03T09:25:34.522Z,24.52
2023-04-03T09:26:34.502Z,24.54
2023-04-03T09:27:34.543Z,24.53
2023-04-03T09:28:42.621Z,24.53
2023-04-03T09:29:35.468Z,24.52
2023-04-03T09:30:34.480Z,24.52
2023-04-03T09:31:34.494Z,24.53
2023-04-03T09:32:34.485Z,24.53
2023-04-03T09:33:34.443Z,24.54
2023-04-03T09:34:34.487Z,24.54
2023-04-03T09:35:44.722Z,24.55
2023-04-03T09:36:35.501Z,24.55
2023-04-03T09:37:34.433Z,24.58
2023-04-03T09:38:34.429Z,24.62
2023-04-03T09:39:34.422Z,24.61
2023-04-03T09:40:34.393Z,24.61
2023-04-03T09:41:34.391Z,24.61
2023-04-03T09:42:34.407Z,24.61
2023-04-03T09:43:34.394Z,24.61
2023-04-03T09:44:34.392Z,24.61
2023-04-03T09:45:34.376Z,24.61
2023-04-03T09:46:34.421Z,24.61
2023-04-03T09:47:34.371Z,24.63
2023-04-03T09:48:34.364Z,24.65
2023-04-03T09:49:34.352Z,24.69
2023-04-03T09:50:34.344Z,24.73
2023-04-03T09:51:34.326Z,24.72
2023-04-03T09:52:34.418Z,24.70
2023-04-03T09:53:34.341Z,24.70
2023-04-03T09:54:34.350Z,24.70
2023-04-03T09:55:34.327Z,24.69
2023-04-03T09:56:34.340Z,24.70
2023-04-03T09:57:34.490Z,24.69
2023-04-03T09:58:46.847Z,24.70
2023-04-03T09:59:35.402Z,24.70
2023-04-03T10:00:34.348Z,24.71
2023-04-03T10:01:34.493Z,24.71
2023-04-03T10:02:34.361Z,24.74
2023-04-03T10:03:34.718Z,24.74
2023-04-03T10:04:34.360Z,24.75
2023-04-03T10:05:34.333Z,24.77
2023-04-03T10:06:34.324Z,24.81
2023-04-03T10:07:34.320Z,24.85
2023-04-03T10:08:34.459Z,24.88
2023-04-03T10:09:34.310Z,24.91
2023-04-03T10:10:34.284Z,24.91
2023-04-03T10:11:34.307Z,24.85
2023-04-03T10:12:34.291Z,24.81
2023-04-03T10:13:41.955Z,24.78
2023-04-03T10:14:35.269Z,24.75
2023-04-03T10:15:34.249Z,24.74
2023-04-03T10:16:34.272Z,24.72
2023-04-03T10:17:34.276Z,24.71
2023-04-03T10:18:34.325Z,24.69
2023-04-03T10:19:34.232Z,24.68
2023-04-03T10:20:34.251Z,24.66
2023-04-03T10:21:34.210Z,24.65
2023-04-03T10:22:34.217Z,24.63
2023-04-03T10:23:34.221Z,24.62
2023-04-03T10:24:34.298Z,24.61
2023-04-03T10:25:34.227Z,24.60
2023-04-03T10:26:34.198Z,24.58
2023-04-03T10:27:34.173Z,24.57
2023-04-03T10:28:34.184Z,24.54
2023-04-03T10:29:34.160Z,24.55
2023-04-03T10:30:34.227Z,24.55
2023-04-03T10:31:34.226Z,24.55
2023-04-03T10:32:34.175Z,24.52
2023-04-03T10:33:34.147Z,24.51
2023-04-03T10:34:34.169Z,24.49
2023-04-03T10:35:34.215Z,24.47
2023-04-03T10:36:34.213Z,24.46
2023-04-03T10:37:34.256Z,24.44
2023-04-03T10:38:34.296Z,24.43
2023-04-03T10:39:34.334Z,24.42
2023-04-03T10:40:34.453Z,24.40
2023-04-03T10:41:34.401Z,24.39
2023-04-03T10:42:34.416Z,24.39
2023-04-03T10:43:34.482Z,24.37
2023-04-03T10:44:34.492Z,24.37
2023-04-03T10:45:34.534Z,24.37
2023-04-03T10:46:34.667Z,24.36
2023-04-03T10:47:36.025Z,24.35
2023-04-03T10:48:34.897Z,24.34
2023-04-03T10:49:34.898Z,24.33
2023-04-03T10:50:34.971Z,24.31
2023-04-03T10:51:34.997Z,24.32
2023-04-03T10:52:35.035Z,24.31
2023-04-03T10:53:35.084Z,24.30
2023-04-03T10:54:35.161Z,24.27
2023-04-03T10:55:35.196Z,24.27
2023-04-03T10:56:35.345Z,24.31
2023-04-03T10:57:35.363Z,24.34
2023-04-03T10:58:35.332Z,24.38
2023-04-03T10:59:35.390Z,24.41
2023-04-03T11:00:35.796Z,24.46
2023-04-03T11:01:35.525Z,24.49
2023-04-03T11:02:35.563Z,24.53
2023-04-03T11:03:35.655Z,24.56
2023-04-03T11:04:35.602Z,24.56
2023-04-03T11:05:35.642Z,24.56
2023-04-03T11:06:35.621Z,24.56
2023-04-03T11:07:35.646Z,24.54
2023-04-03T11:08:35.801Z,24.52
2023-04-03T11:09:35.713Z,24.49
2023-04-03T11:10:35.763Z,24.46
2023-04-03T11:11:35.787Z,24.44
2023-04-03T11:12:35.845Z,24.44
2023-04-03T11:13:35.910Z,24.43
2023-04-03T11:14:35.930Z,24.42
2023-04-03T11:15:36.030Z,24.41
2023-04-03T11:16:43.479Z,24.41
2023-04-03T11:17:37.038Z,24.40
2023-04-03T11:18:35.999Z,24.40
2023-04-03T11:19:35.989Z,24.41
2023-04-03T11:20:35.986Z,24.41
2023-04-03T11:21:35.963Z,24.42
2023-04-03T11:22:35.978Z,24.42
2023-04-03T11:23:48.925Z,24.43
2023-04-03T11:24:36.964Z,24.44
2023-04-03T11:25:36.141Z,24.45
2023-04-03T11:26:35.950Z,24.46
2023-04-03T11:27:35.936Z,24.46
2023-04-03T11:28:36.013Z,24.47
2023-04-03T11:29:36.179Z,24.48
2023-04-03T11:30:35.910Z,24.48
2023-04-03T11:31:35.958Z,24.50
2023-04-03T11:32:35.907Z,24.50
2023-04-03T11:33:35.885Z,24.51
2023-04-03T11:34:35.902Z,24.52
2023-04-03T11:35:36.080Z,24.53
2023-04-03T11:36:36.901Z,24.53
2023-04-03T11:37:35.873Z,24.54
2023-04-03T11:38:35.890Z,24.55
2023-04-03T11:39:35.864Z,24.56
2023-04-03T11:40:35.877Z,24.56
2023-04-03T11:41:35.905Z,24.57
2023-04-03T11:42:35.959Z,24.58
2023-04-03T11:43:36.002Z,24.60
2023-04-03T11:44:36.062Z,24.60
2023-04-03T11:45:36.146Z,24.60
2023-04-03T11:46:36.014Z,24.60
2023-04-03T11:47:36.118Z,24.60
2023-04-03T11:48:36.101Z,24.60
2023-04-03T11:49:36.078Z,24.59
2023-04-03T11:50:36.095Z,24.60
2023-04-03T11:51:36.127Z,24.60
2023-04-03T11:52:36.145Z,24.61
2023-04-03T11:53:36.181Z,24.61
2023-04-03T11:54:44.435Z,24.61
2023-04-03T11:55:37.359Z,24.61
2023-04-03T11:56:36.189Z,24.61
2023-04-03T11:57:36.219Z,24.62
2023-04-03T11:58:36.203Z,24.62
2023-04-03T11:59:36.172Z,24.62
2023-04-03T12:00:36.248Z,24.62
2023-04-03T12:01:36.156Z,24.62
2023-04-03T12:02:44.251Z,24.62
2023-04-03T12:03:37.267Z,24.62
2023-04-03T12:04:36.157Z,24.63
2023-04-03T12:05:36.299Z,24.62
2023-04-03T12:06:36.138Z,24.62
2023-04-03T12:07:36.117Z,24.61
2023-04-03T12:08:36.115Z,24.61
2023-04-03T12:09:36.122Z,24.61
2023-04-03T12:10:36.104Z,24.60
2023-04-03T12:11:36.090Z,24.60
2023-04-03T12:12:36.082Z,24.60
2023-04-03T12:13:36.109Z,24.60
2023-04-03T12:14:36.086Z,24.60
2023-04-03T12:15:36.216Z,24.59
2023-04-03T12:16:36.172Z,24.59
2023-04-03T12:17:36.077Z,24.58
2023-04-03T12:18:36.064Z,24.59
2023-04-03T12:20:36.025Z,24.58
2023-04-03T12:21:36.041Z,24.58
2023-04-03T12:22:36.033Z,24.58
2023-04-03T12:23:36.033Z,24.58
2023-04-03T12:24:36.010Z,24.58
2023-04-03T12:25:36.151Z,24.58
2023-04-03T12:26:45.937Z,24.57
2023-04-03T12:27:37.008Z,24.57
2023-04-03T12:28:36.000Z,24.57
2023-04-03T12:29:35.984Z,24.56
2023-04-03T12:30:35.990Z,24.56
2023-04-03T12:31:36.003Z,24.56
2023-04-03T12:32:36.056Z,24.56
2023-04-03T12:33:35.994Z,24.56
2023-04-03T12:34:35.951Z,24.56
2023-04-03T12:35:36.200Z,24.56
2023-04-03T12:36:35.960Z,24.56
2023-04-03T12:37:35.953Z,24.56
2023-04-03T12:38:35.941Z,24.56
2023-04-03T12:39:35.933Z,24.56
2023-04-03T12:40:35.949Z,24.55
2023-04-03T12:41:35.909Z,24.55
2023-04-03T12:42:35.900Z,24.55
2023-04-03T12:43:35.904Z,24.54
2023-04-03T12:44:35.885Z,24.54
2023-04-03T12:45:36.149Z,24.54
2023-04-03T12:46:35.983Z,24.53
2023-04-03T12:47:35.956Z,24.53
2023-04-03T12:48:36.074Z,24.53
2023-04-03T12:49:36.452Z,24.53
2023-04-03T12:50:36.054Z,24.53
2023-04-03T12:51:36.112Z,24.52
2023-04-03T12:52:36.120Z,24.54
2023-04-03T12:53:36.149Z,24.53